Time;durP1;ratioP1;P1;durP2;ratioP2;P2;SDS_P1;SDS_P2;PMS_P1;PMS_P2;Temp;Humidity;BMP_temperature;BMP_pressure;BME280_temperature;BME280_humidity;BME280_pressure;Samples;Min_cycle;Max_cycle;Signal;HPM_P1;HPM_P2
2022/02/14 00:00:25;;;;;;;57.17;52.15;;;;;;;-3.78;100.00;102235.63;5049429;28;20053;-79
2022/02/14 00:02:52;;;;;;;61.92;57.55;;;;;;;-3.86;100.00;102232.56;5053607;28;20060;-79
2022/02/14 00:05:20;;;;;;;69.60;64.18;;;;;;;-3.43;100.00;102243.41;5055477;28;20107;-79
2022/02/14 00:07:47;;;;;;;57.25;53.17;;;;;;;-3.67;100.00;102241.13;5054673;28;20045;-79
2022/02/14 00:10:14;;;;;;;58.35;54.05;;;;;;;-3.45;100.00;102238.28;5047480;28;20057;-78
2022/02/14 00:12:42;;;;;;;59.33;54.85;;;;;;;-3.64;100.00;102233.19;5054797;28;20049;-80
2022/02/14 00:15:10;;;;;;;58.25;53.85;;;;;;;-3.84;100.00;102233.31;5054668;28;20389;-81
2022/02/14 00:17:37;;;;;;;56.85;52.72;;;;;;;-3.49;100.00;102231.56;5055228;28;20091;-80
2022/02/14 00:20:05;;;;;;;57.95;53.45;;;;;;;-3.41;100.00;102223.41;5054881;28;20049;-80
2022/02/14 00:22:34;;;;;;;59.17;54.55;;;;;;;-3.37;100.00;102220.56;5054663;28;20123;-78
2022/02/14 00:25:01;;;;;;;63.13;58.13;;;;;;;-3.75;100.00;102223.34;5054891;28;20059;-79
2022/02/14 00:27:27;;;;;;;60.65;56.30;;;;;;;-3.78;100.00;102226.09;5055275;28;20041;-79
2022/02/14 00:29:54;;;;;;;64.13;58.28;;;;;;;-3.98;100.00;102221.03;5054644;28;20048;-79
2022/02/14 00:32:22;;;;;;;60.53;55.42;;;;;;;-3.93;100.00;102222.50;5054092;28;20067;-80
2022/02/14 00:34:50;;;;;;;54.03;49.80;;;;;;;-3.74;100.00;102217.22;5052830;28;20127;-81
2022/02/14 00:37:17;;;;;;;60.05;55.20;;;;;;;-3.72;100.00;102219.75;5054929;28;20061;-81
2022/02/14 00:39:45;;;;;;;60.58;56.17;;;;;;;-3.64;100.00;102214.16;5053983;28;20560;-79
2022/02/14 00:42:12;;;;;;;58.60;54.10;;;;;;;-3.70;100.00;102213.53;5054318;28;20478;-81
2022/02/14 00:44:39;;;;;;;56.88;52.60;;;;;;;-3.86;100.00;102214.41;5054649;28;20110;-81
2022/02/14 00:47:06;;;;;;;58.97;54.42;;;;;;;-3.97;100.00;102220.09;5043583;28;20045;-79
2022/02/14 00:49:33;;;;;;;57.95;53.38;;;;;;;-3.96;100.00;102209.66;5049646;28;20091;-80
2022/02/14 00:52:00;;;;;;;62.40;57.05;;;;;;;-3.85;100.00;102210.88;5054335;28;20111;-79
2022/02/14 00:54:27;;;;;;;57.80;52.88;;;;;;;-3.78;100.00;102210.50;5054092;28;20119;-81
2022/02/14 00:56:55;;;;;;;65.45;60.30;;;;;;;-3.87;100.00;102205.78;5054368;28;20052;-81
2022/02/14 00:59:22;;;;;;;63.83;59.08;;;;;;;-4.09;100.00;102200.78;5054531;28;20076;-80
2022/02/14 01:01:49;;;;;;;57.30;52.58;;;;;;;-3.96;100.00;102201.03;5052925;28;20482;-80
2022/02/14 01:04:16;;;;;;;58.63;54.13;;;;;;;-4.25;100.00;102198.09;5054774;28;20460;-80
2022/02/14 01:06:44;;;;;;;59.88;55.15;;;;;;;-4.09;100.00;102194.75;5045520;28;20095;-79
2022/02/14 01:09:11;;;;;;;72.40;67.03;;;;;;;-4.16;100.00;102183.84;5052788;28;20537;-81
2022/02/14 01:11:39;;;;;;;62.05;57.20;;;;;;;-4.26;100.00;102180.03;5055210;28;20462;-79
2022/02/14 01:14:07;;;;;;;59.83;55.25;;;;;;;-4.12;100.00;102185.34;5053600;28;20455;-81
2022/02/14 01:16:34;;;;;;;65.05;60.08;;;;;;;-4.11;100.00;102181.88;5053892;28;20087;-80
2022/02/14 01:19:01;;;;;;;61.88;56.50;;;;;;;-3.96;100.00;102169.88;5054072;28;20119;-80
2022/02/14 01:21:28;;;;;;;64.55;59.20;;;;;;;-3.97;100.00;102165.59;5054016;28;20048;-81
2022/02/14 01:23:55;;;;;;;66.07;60.88;;;;;;;-3.96;100.00;102170.72;5053651;28;20362;-81
2022/02/14 01:26:21;;;;;;;60.80;56.30;;;;;;;-4.13;100.00;102173.31;5053418;28;20056;-80
2022/02/14 01:28:48;;;;;;;60.17;55.17;;;;;;;-3.88;100.00;102169.50;5054145;28;20049;-79
2022/02/14 01:31:16;;;;;;;66.18;60.63;;;;;;;-3.70;100.00;102166.81;5053667;28;20053;-81
2022/02/14 01:33:43;;;;;;;66.00;61.25;;;;;;;-3.97;100.00;102168.19;5053337;28;20123;-79
2022/02/14 01:36:10;;;;;;;63.33;58.28;;;;;;;-4.08;100.00;102165.31;5053866;28;20049;-81
2022/02/14 01:38:37;;;;;;;64.90;60.30;;;;;;;-3.89;100.00;102157.44;5052380;28;20048;-81
2022/02/14 01:41:04;;;;;;;57.83;53.33;;;;;;;-3.96;100.00;102160.34;5053098;28;20190;-79
2022/02/14 01:43:31;;;;;;;62.45;57.33;;;;;;;-4.03;100.00;102155.53;5053831;28;20049;-80
2022/02/14 01:45:58;;;;;;;60.28;55.78;;;;;;;-4.45;100.00;102151.50;5052859;28;20041;-81
2022/02/14 01:48:26;;;;;;;60.78;55.88;;;;;;;-4.60;100.00;102153.06;5053625;28;20044;-80
2022/02/14 01:50:53;;;;;;;62.40;57.25;;;;;;;-4.54;100.00;102151.94;5049457;28;20053;-81
2022/02/14 01:53:21;;;;;;;57.50;52.90;;;;;;;-4.76;100.00;102149.53;5052863;28;20052;-79
2022/02/14 01:55:48;;;;;;;64.97;59.25;;;;;;;-4.31;100.00;102140.47;5052947;28;20049;-79
2022/02/14 01:58:15;;;;;;;66.20;60.80;;;;;;;-4.24;100.00;102139.25;5053314;28;20063;-80
2022/02/14 02:00:43;;;;;;;73.65;67.82;;;;;;;-4.14;100.00;102148.28;5052894;28;20045;-80
2022/02/14 02:03:10;;;;;;;68.97;63.22;;;;;;;-4.00;100.00;102135.44;5052133;28;20504;-79
2022/02/14 02:05:38;;;;;;;58.38;53.63;;;;;;;-4.28;100.00;102135.13;5053199;28;20049;-79
2022/02/14 02:08:05;;;;;;;64.72;59.72;;;;;;;-4.15;100.00;102137.03;5051283;28;20424;-80
2022/02/14 02:10:32;;;;;;;64.78;59.78;;;;;;;-4.35;100.00;102133.78;5053503;28;20118;-80
2022/02/14 02:13:00;;;;;;;64.43;59.22;;;;;;;-4.76;100.00;102132.22;5053961;28;20049;-80
2022/02/14 02:15:27;;;;;;;55.92;51.33;;;;;;;-4.73;100.00;102123.47;5053479;28;20421;-80
2022/02/14 02:17:54;;;;;;;57.50;52.22;;;;;;;-4.32;100.00;102121.47;5060995;28;20041;-78
2022/02/14 02:20:22;;;;;;;61.15;56.45;;;;;;;-4.22;100.00;102116.66;5052715;28;20107;-81
2022/02/14 02:22:52;;;;;;;66.82;61.65;;;;;;;-4.32;100.00;102118.88;5052303;28;20045;-80
2022/02/14 02:25:21;;;;;;;69.28;63.50;;;;;;;-4.30;100.00;102121.38;5053188;28;20448;-80
2022/02/14 02:27:48;;;;;;;71.07;65.47;;;;;;;-4.54;100.00;102124.25;5053456;28;20076;-80
2022/02/14 02:30:18;;;;;;;62.30;56.80;;;;;;;-4.71;100.00;102113.88;5052792;28;20072;-82
2022/02/14 02:32:45;;;;;;;62.30;57.20;;;;;;;-4.71;100.00;102113.88;5052466;28;20048;-80
2022/02/14 02:35:13;;;;;;;65.88;60.45;;;;;;;-4.72;100.00;102127.72;5051298;28;20049;-79
2022/02/14 02:37:40;;;;;;;56.85;51.80;;;;;;;-4.58;100.00;102127.91;5053078;28;20049;-80
2022/02/14 02:40:10;;;;;;;54.55;50.10;;;;;;;-4.82;100.00;102126.50;5052728;28;20107;-81
2022/02/14 02:42:38;;;;;;;60.35;55.38;;;;;;;-4.57;100.00;102131.34;5051124;28;20060;-80
2022/02/14 02:45:06;;;;;;;56.33;51.80;;;;;;;-4.67;100.00;102124.00;5053088;28;20045;-81
2022/02/14 02:47:32;;;;;;;62.17;56.85;;;;;;;-4.61;100.00;102115.09;5052148;28;20045;-79
2022/02/14 02:49:59;;;;;;;67.13;61.30;;;;;;;-4.39;100.00;102117.50;5052323;28;20053;-81
2022/02/14 02:52:26;;;;;;;62.25;57.08;;;;;;;-4.29;100.00;102115.31;5053666;28;20044;-81
2022/02/14 02:54:55;;;;;;;60.67;55.47;;;;;;;-4.76;100.00;102116.66;5056004;28;20053;-79
2022/02/14 02:57:23;;;;;;;59.85;54.78;;;;;;;-4.88;100.00;102117.25;5056427;28;20049;-80
2022/02/14 02:59:52;;;;;;;63.30;58.08;;;;;;;-4.54;100.00;102121.66;5055779;28;20469;-79
2022/02/14 03:02:25;;;;;;;62.20;56.90;;;;;;;-4.65;100.00;102113.56;5146511;22;20057;-79
2022/02/14 03:04:52;;;;;;;63.55;58.25;;;;;;;-5.09;100.00;102117.31;5036348;28;20095;-81
2022/02/14 03:07:19;;;;;;;66.70;61.28;;;;;;;-4.73;100.00;102107.91;5036310;28;20570;-81
2022/02/14 03:09:45;;;;;;;69.13;62.85;;;;;;;-4.30;100.00;102121.38;5036065;28;20465;-80
2022/02/14 03:12:12;;;;;;;61.55;56.22;;;;;;;-4.76;100.00;102115.84;5037211;28;20107;-81
2022/02/14 03:14:39;;;;;;;61.15;56.05;;;;;;;-4.96;100.00;102119.34;5036008;28;20111;-80
2022/02/14 03:17:10;;;;;;;66.32;60.97;;;;;;;-4.85;100.00;102117.09;5035900;28;20050;-81
2022/02/14 03:19:37;;;;;;;66.90;61.13;;;;;;;-4.73;100.00;102123.47;5036242;28;20381;-79
2022/02/14 03:22:05;;;;;;;62.45;57.30;;;;;;;-4.84;100.00;102116.22;5036162;28;20053;-80
2022/02/14 03:24:32;;;;;;;65.22;59.03;;;;;;;-4.61;100.00;102120.28;5036863;28;20386;-81
2022/02/14 03:26:59;;;;;;;74.10;67.53;;;;;;;-4.70;100.00;102113.78;5036158;28;20045;-80
2022/02/14 03:29:25;;;;;;;82.38;73.78;;;;;;;-4.94;100.00;102117.53;5035878;28;20444;-80
2022/02/14 03:31:52;;;;;;;83.32;68.22;;;;;;;-4.89;100.00;102113.81;5032990;28;20045;-80
2022/02/14 03:34:20;;;;;;;89.25;71.03;;;;;;;-4.95;100.00;102118.44;5034470;28;20503;-79
2022/02/14 03:36:47;;;;;;;84.57;69.95;;;;;;;-4.94;100.00;102113.19;5036204;28;20064;-80
2022/02/14 03:39:14;;;;;;;90.93;72.25;;;;;;;-4.63;100.00;102115.19;5036010;28;20559;-80
2022/02/14 03:41:41;;;;;;;79.88;70.13;;;;;;;-4.88;100.00;102106.88;5031736;28;20056;-81
2022/02/14 03:44:07;;;;;;;75.13;66.95;;;;;;;-4.83;100.00;102112.69;5027272;28;20123;-80
2022/02/14 03:46:34;;;;;;;69.65;62.58;;;;;;;-4.88;100.00;102109.47;5034179;28;20049;-80
2022/02/14 03:49:01;;;;;;;68.15;61.60;;;;;;;-5.22;100.00;102099.84;5035433;28;20122;-80
2022/02/14 03:51:29;;;;;;;68.80;60.97;;;;;;;-5.37;100.00;102094.44;5035513;28;20049;-79
2022/02/14 03:53:56;;;;;;;76.72;69.32;;;;;;;-4.87;100.00;102086.09;5035440;28;20057;-79
2022/02/14 03:56:23;;;;;;;73.00;65.72;;;;;;;-5.09;100.00;102094.00;5035851;28;20061;-81
2022/02/14 03:58:56;;;;;;;77.20;69.57;;;;;;;-4.94;100.00;102086.44;5035561;28;20460;-79
2022/02/14 04:01:23;;;;;;;75.40;67.90;;;;;;;-4.83;100.00;102089.38;5033712;28;20128;-81
2022/02/14 04:03:50;;;;;;;66.80;60.80;;;;;;;-4.88;100.00;102092.16;5034612;28;20107;-81
2022/02/14 04:06:17;;;;;;;71.68;65.38;;;;;;;-5.04;100.00;102091.22;5035234;28;20053;-79
2022/02/14 04:08:45;;;;;;;64.38;58.88;;;;;;;-5.53;100.00;102091.69;5035099;28;20462;-80
2022/02/14 04:11:11;;;;;;;66.93;61.13;;;;;;;-5.07;100.00;102088.75;5035802;28;20139;-81
2022/02/14 04:13:45;;;;;;;66.55;60.78;;;;;;;-5.22;100.00;102086.88;5032544;28;20115;-80
2022/02/14 04:16:11;;;;;;;62.35;56.92;;;;;;;-5.06;100.00;102080.91;5023024;28;20477;-79
2022/02/14 04:18:38;;;;;;;60.72;55.47;;;;;;;-4.83;100.00;102081.59;5034888;28;20473;-79
2022/02/14 04:21:05;;;;;;;60.58;55.40;;;;;;;-4.85;100.00;102076.47;5035407;28;20123;-79
2022/02/14 04:23:32;;;;;;;65.53;59.13;;;;;;;-4.75;100.00;102083.81;5035034;28;20126;-80
2022/02/14 04:26:00;;;;;;;72.80;65.32;;;;;;;-4.65;100.00;102079.88;5034861;28;20045;-80
2022/02/14 04:28:27;;;;;;;69.20;62.88;;;;;;;-4.85;100.00;102073.03;5027072;28;20085;-80
2022/02/14 04:30:53;;;;;;;75.60;69.07;;;;;;;-4.77;100.00;102076.09;5025495;28;20046;-79
2022/02/14 04:33:20;;;;;;;66.55;61.55;;;;;;;-4.73;100.00;102074.19;5031949;28;20370;-79
2022/02/14 04:35:47;;;;;;;58.10;52.85;;;;;;;-4.92;100.00;102074.25;5034650;28;20111;-79
2022/02/14 04:38:14;;;;;;;60.55;55.55;;;;;;;-4.88;100.00;102060.22;5034315;28;20566;-80
2022/02/14 04:40:40;;;;;;;64.82;59.25;;;;;;;-5.00;100.00;102064.22;5033251;28;20041;-80
2022/02/14 04:43:09;;;;;;;56.88;51.65;;;;;;;-5.24;100.00;102063.63;5030823;28;20115;-80
2022/02/14 04:45:36;;;;;;;54.97;50.00;;;;;;;-5.16;100.00;102064.13;5026129;28;20573;-80
2022/02/14 04:48:04;;;;;;;57.67;52.30;;;;;;;-5.31;100.00;102063.06;5034660;28;20179;-79
2022/02/14 04:50:32;;;;;;;59.15;53.85;;;;;;;-5.02;100.00;102060.03;5034043;28;20046;-79
2022/02/14 04:52:58;;;;;;;62.03;56.75;;;;;;;-4.63;100.00;102071.09;5034460;28;20050;-79
2022/02/14 04:55:25;;;;;;;59.65;54.33;;;;;;;-5.00;100.00;102068.59;5034393;28;20468;-80
2022/02/14 04:57:53;;;;;;;57.50;52.47;;;;;;;-5.43;100.00;102066.22;5033446;28;20049;-79
2022/02/14 05:00:21;;;;;;;61.88;56.53;;;;;;;-4.92;100.00;102066.47;5031690;28;20397;-80
2022/02/14 05:02:48;;;;;;;54.72;50.03;;;;;;;-4.96;100.00;102064.91;5033799;28;20126;-78
2022/02/14 05:05:16;;;;;;;60.15;54.30;;;;;;;-5.10;100.00;102061.25;5033810;28;20041;-79
2022/02/14 05:07:43;;;;;;;104.22;69.65;;;;;;;-5.01;100.00;102069.50;5033661;28;20452;-78
2022/02/14 05:10:11;;;;;;;93.93;65.53;;;;;;;-4.82;100.00;102080.66;5033758;28;20060;-80
2022/02/14 05:12:37;;;;;;;88.20;63.00;;;;;;;-4.84;100.00;102075.56;5034588;28;20118;-78
2022/02/14 05:15:05;;;;;;;75.90;60.40;;;;;;;-4.80;100.00;102073.66;5034514;28;20057;-78
2022/02/14 05:17:35;;;;;;;86.72;59.35;;;;;;;-5.12;100.00;102073.41;5033848;28;20437;-79
2022/02/14 05:20:02;;;;;;;76.90;57.30;;;;;;;-5.27;100.00;102076.72;5033887;28;20057;-78
2022/02/14 05:22:29;;;;;;;74.03;56.42;;;;;;;-5.40;100.00;102076.44;5034156;28;20053;-79
2022/02/14 05:24:55;;;;;;;71.95;56.13;;;;;;;-4.81;100.00;102084.97;5032665;28;20057;-80
2022/02/14 05:27:22;;;;;;;63.97;54.38;;;;;;;-4.65;100.00;102091.06;5029038;28;20054;-80
2022/02/14 05:29:49;;;;;;;64.47;57.58;;;;;;;-4.67;100.00;102086.88;5021144;28;20127;-79
2022/02/14 05:32:17;;;;;;;63.50;57.20;;;;;;;-4.34;100.00;102081.78;5033663;28;20049;-79
2022/02/14 05:34:45;;;;;;;93.15;69.57;;;;;;;-4.25;100.00;102096.06;5033471;28;20472;-80
2022/02/14 05:37:12;;;;;;;94.30;67.50;;;;;;;-4.51;100.00;102095.56;5033621;28;20133;-79
2022/02/14 05:39:43;;;;;;;63.45;56.80;;;;;;;-4.59;100.00;102086.50;5032207;28;20045;-80
2022/02/14 05:42:11;;;;;;;65.03;57.90;;;;;;;-4.22;100.00;102104.53;5033123;28;20130;-79
2022/02/14 05:44:38;;;;;;;72.55;56.05;;;;;;;-4.17;100.00;102096.53;5027433;28;20057;-79
2022/02/14 05:47:05;;;;;;;84.32;63.25;;;;;;;-4.19;100.00;102100.94;5031917;28;20543;-81
2022/02/14 05:49:31;;;;;;;91.38;66.32;;;;;;;-4.40;100.00;102108.88;5032621;28;20049;-78
2022/02/14 05:51:59;;;;;;;88.72;61.83;;;;;;;-4.23;100.00;102105.47;5030700;28;20563;-81
2022/02/14 05:54:26;;;;;;;83.18;63.63;;;;;;;-4.13;100.00;102105.00;5024861;28;20521;-80
2022/02/14 05:56:53;;;;;;;64.63;57.60;;;;;;;-3.93;100.00;102110.88;5030828;28;20049;-79
2022/02/14 05:59:20;;;;;;;74.38;67.72;;;;;;;-3.95;100.00;102115.28;5028359;28;20084;-79
2022/02/14 06:01:46;;;;;;;77.93;70.88;;;;;;;-3.69;100.00;102110.53;5030499;28;20477;-80
2022/02/14 06:04:13;;;;;;;88.88;75.15;;;;;;;-3.52;100.00;102123.47;5031732;28;20053;-83
2022/02/14 06:06:41;;;;;;;87.93;77.70;;;;;;;-3.64;100.00;102124.09;5033051;28;20049;-82
2022/02/14 06:09:09;;;;;;;92.65;82.72;;;;;;;-3.46;100.00;102119.69;5033105;28;20144;-80
2022/02/14 06:11:36;;;;;;;101.43;89.40;;;;;;;-3.38;100.00;102122.75;5028439;28;20072;-79
2022/02/14 06:14:02;;;;;;;106.35;93.65;;;;;;;-3.37;100.00;102115.78;5028879;28;20045;-80
2022/02/14 06:16:30;;;;;;;125.32;100.32;;;;;;;-3.43;100.00;102124.72;5033495;28;20050;-79
2022/02/14 06:18:57;;;;;;;144.68;103.38;;;;;;;-3.40;100.00;102116.78;5032667;28;20462;-79
2022/02/14 06:21:24;;;;;;;132.88;98.28;;;;;;;-3.28;100.00;102120.50;5032921;28;20050;-80
2022/02/14 06:23:51;;;;;;;129.55;93.57;;;;;;;-3.10;100.00;102124.69;4997311;28;20124;-79
2022/02/14 06:26:20;;;;;;;139.60;99.75;;;;;;;-3.08;100.00;102125.47;5042318;28;20057;-80
2022/02/14 06:28:47;;;;;;;145.20;107.53;;;;;;;-1.24;100.00;102135.66;5037322;28;20398;-81
2022/02/14 06:31:13;;;;;;;149.85;118.07;;;;;;;-1.63;100.00;102131.94;5034272;28;20053;-79
2022/02/14 06:33:40;;;;;;;153.73;124.45;;;;;;;-2.67;100.00;102119.72;5037432;28;20042;-80
2022/02/14 06:36:08;;;;;;;144.85;112.30;;;;;;;-2.58;100.00;102123.59;5036750;28;20038;-79
2022/02/14 06:38:35;;;;;;;131.95;106.82;;;;;;;-2.72;100.00;102119.16;5037655;28;20565;-79
2022/02/14 06:41:03;;;;;;;123.53;110.22;;;;;;;-2.68;100.00;102117.22;5038289;28;20540;-79
2022/02/14 06:43:31;;;;;;;109.95;96.45;;;;;;;-2.94;100.00;102113.47;5037554;28;20485;-80
2022/02/14 06:45:57;;;;;;;144.02;112.30;;;;;;;-3.12;100.00;102112.69;5033086;28;20046;-79
2022/02/14 06:48:24;;;;;;;138.45;104.15;;;;;;;-3.28;100.00;102115.28;5030598;28;20095;-81
2022/02/14 06:50:51;;;;;;;118.95;95.45;;;;;;;-3.35;100.00;102108.75;5024862;28;20111;-80
2022/02/14 06:53:18;;;;;;;104.72;91.20;;;;;;;-2.90;100.00;102117.59;5037568;28;20378;-78
2022/02/14 06:55:45;;;;;;;106.95;92.20;;;;;;;-2.08;100.00;102119.88;5034693;28;20066;-81
2022/02/14 06:58:11;;;;;;;115.38;98.32;;;;;;;-1.92;100.00;102115.41;5028164;28;20042;-81
2022/02/14 07:00:40;;;;;;;118.10;99.53;;;;;;;-1.76;100.00;102114.50;5029817;28;20500;-79
2022/02/14 07:03:07;;;;;;;663.30;303.90;;;;;;;-1.36;100.00;102115.56;5035804;28;20441;-79
2022/02/14 07:05:34;;;;;;;1999.90;723.50;;;;;;;-0.65;100.00;102118.94;5032043;28;20045;-79
2022/02/14 07:08:01;;;;;;;879.08;315.98;;;;;;;-0.41;100.00;102125.19;5032206;28;20050;-79
2022/02/14 07:10:28;;;;;;;1135.25;423.60;;;;;;;0.06;100.00;102108.16;5033372;28;20127;-79
2022/02/14 07:12:55;;;;;;;401.90;160.40;;;;;;;0.50;100.00;102109.47;5038439;28;20182;-78
2022/02/14 07:15:22;;;;;;;118.90;90.47;;;;;;;0.79;100.00;102104.00;5038595;28;20092;-79
2022/02/14 07:17:51;;;;;;;87.05;78.20;;;;;;;1.36;100.00;102098.13;5039671;28;20495;-81
2022/02/14 07:20:20;;;;;;;86.22;78.05;;;;;;;1.28;100.00;102098.72;5036661;28;20131;-81
2022/02/14 07:22:47;;;;;;;86.50;78.00;;;;;;;0.95;100.00;102093.28;5026266;28;20445;-81
2022/02/14 07:25:14;;;;;;;85.68;76.95;;;;;;;1.49;100.00;102088.44;5037186;28;20071;-80
2022/02/14 07:27:42;;;;;;;88.22;80.00;;;;;;;1.58;100.00;102090.38;5039272;28;20045;-81
2022/02/14 07:30:13;;;;;;;79.15;72.03;;;;;;;1.05;100.00;102086.44;5036706;28;20053;-79
2022/02/14 07:32:40;;;;;;;81.18;73.78;;;;;;;1.80;100.00;102086.16;5034681;28;20526;-79
2022/02/14 07:35:10;;;;;;;79.10;71.85;;;;;;;1.69;100.00;102088.75;5031986;28;20049;-81
2022/02/14 07:37:37;;;;;;;79.75;71.95;;;;;;;1.53;100.00;102087.25;5035946;28;20485;-81
2022/02/14 07:40:04;;;;;;;76.38;69.63;;;;;;;1.96;100.00;102089.28;5036120;28;20104;-79
2022/02/14 07:42:32;;;;;;;82.50;75.35;;;;;;;1.43;100.00;102088.91;5038480;28;20501;-80
2022/02/14 07:44:59;;;;;;;85.40;78.10;;;;;;;3.35;100.00;102085.34;5037876;28;20144;-78
2022/02/14 07:47:26;;;;;;;82.70;75.82;;;;;;;3.35;100.00;102085.34;5039431;28;20060;-80
2022/02/14 07:49:53;;;;;;;78.90;72.43;;;;;;;4.53;100.00;102074.59;5033575;28;20038;-78
2022/02/14 07:52:22;;;;;;;87.53;80.75;;;;;;;4.34;100.00;102080.59;5037783;28;20453;-79
2022/02/14 07:54:49;;;;;;;93.65;85.72;;;;;;;4.27;100.00;102076.84;5037465;28;20460;-78
2022/02/14 07:57:16;;;;;;;87.95;80.47;;;;;;;4.59;100.00;102082.78;5038379;28;20367;-79
2022/02/14 07:59:43;;;;;;;86.47;79.60;;;;;;;4.93;100.00;102073.72;5039073;28;20049;-79
2022/02/14 08:02:09;;;;;;;83.68;77.05;;;;;;;4.89;100.00;102074.97;5035403;28;20127;-79
2022/02/14 08:04:36;;;;;;;82.40;76.10;;;;;;;5.26;100.00;102073.38;5034965;28;20149;-80
2022/02/14 08:07:05;;;;;;;88.47;81.10;;;;;;;5.97;100.00;102070.41;5036168;28;20056;-80
2022/02/14 08:09:34;;;;;;;89.07;82.15;;;;;;;6.18;100.00;102064.09;5036421;28;20581;-80
2022/02/14 08:12:04;;;;;;;87.00;80.47;;;;;;;6.26;100.00;102066.00;5034069;28;20152;-81
2022/02/14 08:14:30;;;;;;;86.10;79.63;;;;;;;6.29;100.00;102053.34;5031560;28;20099;-79
2022/02/14 08:16:57;;;;;;;84.50;78.15;;;;;;;6.03;100.00;102063.72;5036529;28;20151;-80
2022/02/14 08:19:24;;;;;;;84.55;78.28;;;;;;;6.06;100.00;102063.44;5032912;28;20103;-80
2022/02/14 08:21:51;;;;;;;83.90;77.43;;;;;;;6.35;100.00;102065.13;5024534;28;20474;-79
2022/02/14 08:24:17;;;;;;;80.70;74.75;;;;;;;6.34;100.00;102055.56;5032710;28;20057;-79
2022/02/14 08:26:46;;;;;;;83.63;77.53;;;;;;;6.25;100.00;102062.53;5029394;28;20053;-79
2022/02/14 08:29:13;;;;;;;84.63;78.10;;;;;;;6.88;100.00;102064.47;5025348;28;20052;-79
2022/02/14 08:31:39;;;;;;;87.95;81.55;;;;;;;7.96;100.00;102055.47;5032953;28;20045;-80
2022/02/14 08:34:06;;;;;;;83.60;77.72;;;;;;;7.47;100.00;102056.91;5029903;28;20041;-79
2022/02/14 08:36:33;;;;;;;91.22;84.53;;;;;;;7.94;100.00;102056.59;5031727;28;20053;-80
2022/02/14 08:39:00;;;;;;;87.75;81.38;;;;;;;8.40;100.00;102049.28;5030925;28;20041;-80
2022/02/14 08:41:27;;;;;;;91.40;84.60;;;;;;;5.61;100.00;102042.97;5030874;28;20041;-80
2022/02/14 08:43:55;;;;;;;87.85;80.95;;;;;;;6.12;100.00;102044.41;5030259;28;20053;-79
2022/02/14 08:46:22;;;;;;;87.07;80.22;;;;;;;8.11;100.00;102042.50;5035909;28;20195;-80
2022/02/14 08:48:51;;;;;;;88.30;81.07;;;;;;;8.23;100.00;102043.88;5039216;28;20045;-79
2022/02/14 08:51:19;;;;;;;85.97;79.22;;;;;;;8.04;100.00;102041.44;5037099;28;20046;-80
2022/02/14 08:53:46;;;;;;;88.32;81.60;;;;;;;9.99;100.00;102042.81;5040242;28;20136;-79
2022/02/14 08:56:19;;;;;;;87.45;80.75;;;;;;;9.38;100.00;102033.59;5036219;28;20072;-78
2022/02/14 08:58:46;;;;;;;83.85;77.93;;;;;;;10.68;100.00;102047.53;5035852;28;20049;-79
2022/02/14 09:01:17;;;;;;;88.68;82.40;;;;;;;11.47;100.00;102032.22;5039990;28;20045;-79
2022/02/14 09:03:44;;;;;;;87.97;81.82;;;;;;;10.63;94.70;102034.78;5034749;28;20046;-80
2022/02/14 09:06:12;;;;;;;88.00;81.53;;;;;;;11.72;96.51;102038.13;5033142;28;20057;-81
2022/02/14 09:08:39;;;;;;;86.85;80.65;;;;;;;11.50;92.75;102036.34;5029534;28;20557;-81
2022/02/14 09:11:06;;;;;;;87.95;81.57;;;;;;;11.16;94.02;102037.59;5036821;28;20475;-80
2022/02/14 09:13:36;;;;;;;85.03;78.85;;;;;;;10.00;93.70;102031.19;5030645;28;20057;-80
2022/02/14 09:16:04;;;;;;;83.47;77.55;;;;;;;11.19;100.00;102030.09;5040666;28;20060;-80
2022/02/14 09:18:33;;;;;;;85.70;79.47;;;;;;;11.48;89.52;102033.03;5038798;28;20053;-79
2022/02/14 09:21:01;;;;;;;90.03;83.40;;;;;;;11.85;86.16;102030.38;5040917;28;20129;-82
2022/02/14 09:23:28;;;;;;;92.68;85.95;;;;;;;12.60;87.41;102020.50;5040308;28;20096;-82
2022/02/14 09:25:55;;;;;;;92.97;86.47;;;;;;;11.21;82.81;102025.44;5040263;28;20049;-80
2022/02/14 09:28:21;;;;;;;91.60;84.85;;;;;;;11.83;82.82;102023.53;5040523;28;20052;-81
2022/02/14 09:30:56;;;;;;;97.07;89.72;;;;;;;11.65;80.15;102026.56;5041866;28;20053;-81
2022/02/14 09:33:25;;;;;;;93.63;86.65;;;;;;;12.50;84.37;102020.81;5042103;28;20053;-79
2022/02/14 09:35:57;;;;;;;87.88;81.63;;;;;;;12.46;75.87;102024.00;5043515;28;20477;-82
2022/02/14 09:38:26;;;;;;;92.78;85.93;;;;;;;11.84;75.80;102028.69;5043665;28;20449;-79
2022/02/14 09:40:54;;;;;;;95.50;88.80;;;;;;;11.64;75.31;102025.72;5041218;28;20129;-81
2022/02/14 09:43:21;;;;;;;97.38;90.45;;;;;;;11.78;79.17;102025.94;5041285;28;20480;-78
2022/02/14 09:45:48;;;;;;;90.85;84.22;;;;;;;12.77;75.84;102007.78;5040814;28;20045;-80
2022/02/14 09:48:17;;;;;;;95.53;88.55;;;;;;;12.04;72.17;102018.38;5041678;28;20061;-80
2022/02/14 09:50:44;;;;;;;89.53;83.38;;;;;;;12.04;73.33;102013.06;5041831;28;20045;-79
2022/02/14 10:02:50;;;;;;;89.28;82.40;;;;;;;12.46;73.20;101987.53;4159993;27;10000731;-79
2022/02/14 10:05:18;;;;;;;95.97;88.70;;;;;;;11.43;75.96;101983.03;5164518;27;20055;-80
2022/02/14 10:07:47;;;;;;;96.13;89.28;;;;;;;11.90;76.01;101979.25;5166049;27;20055;-79
2022/02/14 10:10:18;;;;;;;91.97;83.78;;;;;;;12.54;74.77;101974.09;5161881;27;20093;-79
2022/02/14 10:12:47;;;;;;;91.60;84.30;;;;;;;12.00;73.70;101965.66;5164879;27;20051;-79
2022/02/14 10:15:17;;;;;;;101.97;94.32;;;;;;;12.93;69.85;101958.72;5165828;27;20051;-79
2022/02/14 10:17:47;;;;;;;97.10;89.53;;;;;;;13.40;70.87;101959.94;5162946;27;20050;-79
2022/02/14 10:20:17;;;;;;;94.07;86.75;;;;;;;13.36;70.65;101948.81;5165271;27;20047;-82
2022/02/14 10:22:58;;;;;;;100.53;92.88;;;;;;;13.78;67.26;101946.22;5162023;27;20501;-79
2022/02/14 10:25:34;;;;;;;96.50;89.10;;;;;;;13.81;70.11;101943.97;5165524;27;20047;-81
2022/02/14 10:28:19;;;;;;;93.80;87.00;;;;;;;14.09;67.73;101935.88;5158960;27;20042;-82
2022/02/14 10:31:00;;;;;;;93.45;86.13;;;;;;;14.21;67.04;101938.81;5165154;27;20046;-80
2022/02/14 10:36:50;;;;;;;91.70;84.70;;;;;;;12.84;68.11;101934.00;4882106;27;8297443;-78
2022/02/14 10:39:20;;;;;;;97.75;90.28;;;;;;;12.65;69.30;101926.63;5167520;27;20047;-80
2022/02/14 10:41:49;;;;;;;95.80;88.65;;;;;;;12.02;71.33;101924.53;5161739;27;20437;-79
2022/02/14 10:47:06;;;;;;;98.30;90.70;;;;;;;12.66;66.51;101918.47;5157996;27;20055;-79
2022/02/14 10:49:33;;;;;;;89.30;82.47;;;;;;;12.54;67.08;101915.47;5169232;27;20042;-80
2022/02/14 10:52:04;;;;;;;94.63;87.43;;;;;;;12.29;66.38;101915.00;5159060;27;20072;-80
2022/02/14 10:54:36;;;;;;;100.23;92.43;;;;;;;11.21;72.11;101907.59;5176813;27;20042;-79
2022/02/14 10:57:04;;;;;;;99.53;92.03;;;;;;;10.90;74.71;101900.56;5169028;27;20087;-81
2022/02/14 10:59:31;;;;;;;96.35;89.15;;;;;;;10.65;80.72;101894.63;5158512;27;20063;-80
2022/02/14 11:02:01;;;;;;;94.97;88.50;;;;;;;9.73;75.74;101894.44;5153950;27;20051;-79
2022/02/14 11:04:28;;;;;;;94.22;87.80;;;;;;;9.59;75.75;101896.00;5168640;27;20071;-80
2022/02/14 11:06:57;;;;;;;96.63;89.78;;;;;;;9.29;76.08;101891.41;5156888;27;20077;-80
2022/02/14 11:09:27;;;;;;;100.35;92.72;;;;;;;9.72;76.96;101894.63;5164049;27;20043;-80
2022/02/14 11:11:56;;;;;;;99.60;92.50;;;;;;;9.16;75.11;101889.28;5155023;27;20379;-81
2022/02/14 11:14:26;;;;;;;98.20;91.50;;;;;;;9.51;75.73;101895.19;5158187;27;20043;-80
2022/02/14 11:16:54;;;;;;;97.72;90.93;;;;;;;9.95;69.79;101899.97;5162204;27;20050;-80
2022/02/14 11:19:25;;;;;;;92.95;86.53;;;;;;;10.06;72.99;101907.56;5165381;27;20039;-80